createdAt,value
2022-10-11T00:00:20.154Z,30.55
2022-10-11T00:03:07.635Z,30.52
2022-10-11T00:05:35.694Z,31.58
2022-10-11T00:08:05.708Z,32.03
2022-10-11T00:10:34.443Z,32.47
2022-10-11T00:13:02.216Z,31.67
2022-10-11T00:15:30.055Z,31.88
2022-10-11T00:17:57.303Z,33.63
2022-10-11T00:20:24.934Z,29.05
2022-10-11T00:22:52.121Z,32.90
2022-10-11T00:25:19.594Z,34.10
2022-10-11T00:27:47.047Z,35.75
2022-10-11T00:30:14.361Z,34.38
2022-10-11T00:32:41.691Z,33.13
2022-10-11T00:35:10.050Z,31.55
2022-10-11T00:37:39.181Z,32.92
2022-10-11T00:40:11.322Z,30.58
2022-10-11T00:42:39.012Z,29.30
2022-10-11T00:45:28.347Z,28.52
2022-10-11T00:48:23.302Z,29.13
2022-10-11T00:50:50.714Z,29.63
2022-10-11T00:53:18.242Z,30.63
2022-10-11T00:55:53.195Z,31.35
2022-10-11T00:58:23.545Z,29.52
2022-10-11T01:00:51.415Z,30.60
2022-10-11T01:03:23.370Z,30.10
2022-10-11T01:05:51.102Z,32.13
2022-10-11T01:08:18.908Z,31.35
2022-10-11T01:10:46.289Z,33.85
2022-10-11T01:13:31.881Z,34.42
2022-10-11T01:16:22.963Z,34.58
2022-10-11T01:19:03.510Z,33.58
2022-10-11T01:21:49.643Z,34.42
2022-10-11T01:24:35.042Z,34.42
2022-10-11T01:27:14.357Z,34.50
2022-10-11T01:29:56.894Z,35.83
2022-10-11T01:32:33.883Z,34.97
2022-10-11T01:35:27.930Z,34.83
2022-10-11T01:38:38.221Z,38.28
2022-10-11T01:41:18.981Z,36.30
2022-10-11T01:43:48.654Z,33.53
2022-10-11T01:46:17.052Z,31.23
2022-10-11T01:48:56.721Z,35.10
2022-10-11T01:51:47.627Z,34.58
2022-10-11T01:55:03.986Z,33.83
2022-10-11T01:57:34.962Z,34.83
2022-10-11T02:00:08.221Z,35.03
2022-10-11T02:03:02.453Z,35.65
2022-10-11T02:05:46.473Z,36.25
2022-10-11T02:08:25.842Z,33.38
2022-10-11T02:11:06.221Z,35.83
2022-10-11T02:13:41.394Z,36.67
2022-10-11T02:16:13.322Z,34.67
2022-10-11T02:18:48.329Z,33.78
2022-10-11T02:21:23.381Z,36.00
2022-10-11T02:24:00.682Z,35.27
2022-10-11T02:26:31.742Z,42.20
2022-10-11T02:29:04.205Z,41.60
2022-10-11T02:31:34.883Z,41.53
2022-10-11T02:34:08.503Z,43.30
2022-10-11T02:36:50.849Z,41.28
2022-10-11T02:39:57.874Z,38.63
2022-10-11T02:42:32.961Z,34.22
2022-10-11T02:45:07.695Z,31.25
2022-10-11T02:47:35.402Z,30.65
2022-10-11T02:50:04.354Z,31.85
2022-10-11T02:52:31.682Z,28.90
2022-10-11T02:54:58.865Z,31.02
2022-10-11T02:57:26.422Z,28.42
2022-10-11T02:59:53.591Z,25.65
2022-10-11T03:02:20.999Z,25.92
2022-10-11T03:04:48.463Z,26.42
2022-10-11T03:07:15.874Z,29.23
2022-10-11T03:09:43.273Z,29.90
2022-10-11T03:12:11.005Z,31.77
2022-10-11T03:14:38.202Z,31.05
2022-10-11T03:17:34.388Z,33.28
2022-10-11T03:19:56.143Z,35.10
2022-10-11T03:22:23.402Z,35.70
2022-10-11T03:24:50.770Z,38.58
2022-10-11T03:27:18.221Z,35.80
2022-10-11T03:29:45.581Z,40.05
2022-10-11T03:32:12.781Z,40.58
2022-10-11T03:34:42.754Z,43.80
2022-10-11T03:37:09.921Z,42.92
2022-10-11T03:39:38.062Z,41.97
2022-10-11T03:42:05.581Z,44.22
2022-10-11T03:44:32.931Z,42.08
2022-10-11T03:47:00.252Z,42.47
2022-10-11T03:49:27.686Z,43.53
2022-10-11T03:51:54.853Z,39.22
2022-10-11T03:54:22.293Z,40.63
2022-10-11T03:56:49.720Z,42.22
2022-10-11T03:59:17.030Z,40.30
2022-10-11T04:01:44.290Z,40.35
2022-10-11T04:04:11.883Z,38.30
2022-10-11T04:06:39.040Z,39.78
2022-10-11T04:09:06.292Z,36.88
2022-10-11T04:11:33.962Z,34.83
2022-10-11T04:14:01.222Z,34.75
2022-10-11T04:16:30.032Z,32.30
2022-10-11T04:18:57.616Z,29.80
2022-10-11T04:21:24.814Z,30.92
2022-10-11T04:23:52.053Z,36.35
2022-10-11T04:26:19.465Z,39.70
2022-10-11T04:28:46.930Z,39.65
2022-10-11T04:31:14.261Z,38.20
2022-10-11T04:33:41.821Z,37.30
2022-10-11T04:36:09.390Z,35.20
2022-10-11T04:38:36.763Z,32.35
2022-10-11T04:41:13.041Z,29.73
2022-10-11T04:43:41.469Z,29.83
2022-10-11T04:46:10.330Z,28.92
2022-10-11T04:48:38.189Z,31.73
2022-10-11T04:51:05.613Z,32.67
2022-10-11T04:53:33.145Z,35.08
2022-10-11T04:56:06.337Z,36.42
2022-10-11T04:58:35.206Z,35.15
2022-10-11T05:01:02.415Z,35.65
2022-10-11T05:03:30.034Z,34.55
2022-10-11T05:05:59.210Z,34.75
2022-10-11T05:08:29.394Z,34.95
2022-10-11T05:11:04.116Z,33.80
2022-10-11T05:13:32.709Z,33.60
2022-10-11T05:16:00.154Z,31.98
2022-10-11T05:18:31.182Z,28.65
2022-10-11T05:21:05.386Z,30.60
2022-10-11T05:23:34.780Z,31.05
2022-10-11T05:26:03.807Z,29.13
2022-10-11T05:28:31.437Z,29.15
2022-10-11T05:30:59.253Z,26.80
2022-10-11T05:33:27.672Z,25.92
2022-10-11T05:35:55.012Z,25.73
2022-10-11T05:38:23.161Z,25.48
2022-10-11T05:40:50.604Z,25.10
2022-10-11T05:43:18.645Z,26.00
2022-10-11T05:45:46.734Z,26.02
2022-10-11T05:48:14.076Z,27.50
2022-10-11T05:50:41.500Z,26.05
2022-10-11T05:53:09.074Z,23.15
2022-10-11T05:55:40.974Z,15.55
2022-10-11T05:58:12.575Z,16.33
2022-10-11T06:00:40.846Z,15.18
2022-10-11T06:03:11.142Z,21.50
2022-10-11T06:05:38.665Z,22.30
2022-10-11T06:08:07.451Z,27.40
2022-10-11T06:10:35.891Z,22.10
2022-10-11T06:13:03.524Z,15.27
2022-10-11T06:15:32.014Z,15.40
2022-10-11T06:17:59.582Z,14.85
2022-10-11T06:20:27.562Z,18.95
2022-10-11T06:22:57.812Z,20.73
2022-10-11T06:25:25.061Z,23.17
2022-10-11T06:27:52.301Z,24.02
2022-10-11T06:30:19.853Z,21.85
2022-10-11T06:32:47.181Z,19.98
2022-10-11T06:35:14.614Z,21.77
2022-10-11T06:37:42.127Z,21.67
2022-10-11T06:40:09.835Z,20.50
2022-10-11T06:42:37.122Z,27.42
2022-10-11T06:45:05.070Z,22.23
2022-10-11T06:47:32.263Z,20.38
2022-10-11T06:49:59.592Z,18.50
2022-10-11T06:52:27.163Z,22.00
2022-10-11T06:54:54.575Z,22.65
2022-10-11T06:57:21.852Z,25.27
2022-10-11T06:59:49.324Z,28.42
2022-10-11T07:02:17.699Z,23.30
2022-10-11T07:04:45.101Z,25.23
2022-10-11T07:07:15.422Z,25.00
2022-10-11T07:09:42.753Z,29.83
2022-10-11T07:12:10.222Z,30.27
2022-10-11T07:14:37.727Z,29.58
2022-10-11T07:17:05.207Z,29.75
2022-10-11T07:19:32.544Z,28.70
2022-10-11T07:22:00.114Z,30.55
2022-10-11T07:24:27.423Z,25.05
2022-10-11T07:26:54.673Z,22.77
2022-10-11T07:29:22.274Z,22.13
2022-10-11T07:31:49.602Z,20.67
2022-10-11T07:34:16.993Z,22.35
2022-10-11T07:36:44.584Z,19.85
2022-10-11T07:39:11.884Z,23.35
2022-10-11T07:41:43.288Z,21.95
2022-10-11T07:44:13.909Z,20.48
2022-10-11T07:46:41.106Z,20.20
2022-10-11T07:49:08.455Z,26.20
2022-10-11T07:51:36.321Z,41.28
2022-10-11T07:54:07.237Z,28.98
2022-10-11T07:56:35.342Z,29.67
2022-10-11T07:59:06.475Z,31.05
2022-10-11T08:01:34.010Z,39.70
2022-10-11T08:04:01.355Z,29.70
2022-10-11T08:06:32.760Z,26.70
2022-10-11T08:09:01.737Z,31.67
2022-10-11T08:11:32.501Z,30.17
2022-10-11T08:14:00.954Z,32.80
2022-10-11T08:16:28.302Z,31.75
2022-10-11T08:18:57.221Z,35.00
2022-10-11T08:21:26.537Z,42.00
2022-10-11T08:23:53.853Z,36.70
2022-10-11T08:26:21.790Z,25.13
2022-10-11T08:28:50.412Z,22.58
2022-10-11T08:31:17.694Z,18.13
2022-10-11T08:33:45.380Z,16.75
2022-10-11T08:36:13.179Z,15.00
2022-10-11T08:38:40.638Z,14.43
2022-10-11T08:41:39.248Z,13.88
2022-10-11T08:44:15.461Z,13.43
2022-10-11T08:46:49.224Z,13.40
2022-10-11T08:49:20.029Z,15.80
2022-10-11T08:51:52.909Z,14.02
2022-10-11T08:54:32.179Z,14.07
2022-10-11T08:57:02.701Z,16.77
2022-10-11T08:59:39.815Z,11.68
2022-10-11T09:03:06.435Z,14.52
2022-10-11T09:05:34.661Z,8.95
2022-10-11T09:08:12.253Z,7.65
2022-10-11T09:10:54.173Z,8.82
2022-10-11T09:13:59.234Z,8.77
2022-10-11T09:16:33.205Z,15.77
2022-10-11T09:19:22.261Z,10.88
2022-10-11T09:21:53.064Z,14.07
2022-10-11T09:24:54.415Z,14.15
2022-10-11T09:27:50.280Z,13.85
2022-10-11T09:30:18.697Z,20.33
2022-10-11T09:32:51.615Z,11.60
2022-10-11T09:35:21.745Z,10.85
2022-10-11T09:38:03.849Z,10.05
2022-10-11T09:40:43.414Z,10.30
2022-10-11T09:43:10.934Z,10.10
2022-10-11T09:45:48.251Z,12.15
2022-10-11T09:48:30.801Z,10.38
2022-10-11T09:51:15.042Z,10.38
2022-10-11T09:53:53.641Z,15.63
2022-10-11T09:56:22.366Z,16.88
2022-10-11T09:58:49.729Z,18.52
2022-10-11T10:01:25.643Z,25.13
2022-10-11T10:04:07.219Z,30.13
2022-10-11T10:06:34.946Z,21.55
2022-10-11T10:09:26.244Z,22.27
2022-10-11T10:11:55.473Z,20.45
2022-10-11T10:14:30.254Z,18.13
2022-10-11T10:17:14.824Z,16.90
2022-10-11T10:19:55.762Z,19.98
2022-10-11T10:22:32.590Z,22.27
2022-10-11T10:25:06.150Z,23.80
2022-10-11T10:27:34.066Z,24.02
2022-10-11T10:30:10.825Z,23.30
2022-10-11T10:32:51.800Z,22.50
2022-10-11T10:35:33.601Z,22.70
2022-10-11T10:38:06.933Z,24.67
2022-10-11T10:40:56.908Z,23.70
2022-10-11T10:43:33.609Z,23.88
2022-10-11T10:46:08.028Z,22.33
2022-10-11T10:51:52.021Z,22.83
2022-10-11T10:54:38.283Z,22.40
2022-10-11T10:57:27.127Z,23.88
2022-10-11T11:00:06.627Z,20.60
2022-10-11T11:02:56.054Z,21.15
2022-10-11T11:05:41.374Z,21.90
2022-10-11T11:08:46.885Z,23.43
2022-10-11T11:11:20.095Z,25.75
2022-10-11T11:14:12.363Z,25.38
2022-10-11T11:17:06.284Z,25.30
2022-10-11T11:19:36.834Z,27.42
2022-10-11T11:22:13.141Z,25.95
2022-10-11T11:25:08.959Z,28.77
2022-10-11T11:28:10.112Z,27.50
2022-10-11T11:31:15.978Z,32.38
2022-10-11T11:33:48.546Z,33.35
2022-10-11T11:36:28.257Z,33.72
2022-10-11T11:39:10.166Z,34.03
2022-10-11T11:41:43.070Z,33.30
2022-10-11T11:44:13.337Z,32.45
2022-10-11T11:46:48.054Z,33.17
2022-10-11T11:49:25.741Z,32.50
2022-10-11T11:51:54.280Z,31.30
2022-10-11T11:54:39.786Z,29.88
2022-10-11T11:57:28.841Z,32.50
2022-10-11T12:00:17.621Z,35.72
2022-10-11T12:02:52.260Z,31.30
2022-10-11T12:05:24.840Z,31.55
2022-10-11T12:08:00.356Z,31.00
2022-10-11T12:10:38.336Z,29.30
2022-10-11T12:13:32.018Z,33.45
2022-10-11T12:16:06.415Z,31.50
2022-10-11T12:18:41.915Z,31.30
2022-10-11T12:23:49.384Z,32.17
2022-10-11T12:26:28.916Z,32.20
2022-10-11T12:29:28.414Z,37.55
2022-10-11T12:31:59.434Z,28.30
2022-10-11T12:34:26.976Z,29.10
2022-10-11T12:36:55.055Z,26.50
2022-10-11T12:39:23.044Z,27.77
2022-10-11T12:41:55.337Z,26.60
2022-10-11T12:44:30.634Z,23.58
2022-10-11T12:47:21.916Z,25.45
2022-10-11T12:50:18.215Z,23.17
2022-10-11T12:55:30.327Z,28.98
2022-10-11T12:58:25.813Z,35.95
2022-10-11T13:00:53.727Z,36.65
2022-10-11T13:03:43.469Z,37.08
2022-10-11T13:06:25.184Z,31.20
2022-10-11T13:09:02.490Z,31.90
2022-10-11T13:11:34.143Z,26.38
2022-10-11T13:14:09.204Z,25.63
2022-10-11T13:16:51.444Z,29.67
2022-10-11T13:19:23.449Z,29.88
2022-10-11T13:21:54.851Z,49.35
2022-10-11T13:24:24.195Z,63.47
2022-10-11T13:26:55.985Z,58.58
2022-10-11T13:29:39.888Z,48.90
2022-10-11T13:32:37.785Z,44.30
2022-10-11T13:35:14.569Z,36.92
2022-10-11T13:37:46.535Z,35.22
2022-10-11T13:40:20.034Z,29.48
2022-10-11T13:42:49.700Z,28.73
2022-10-11T13:45:21.314Z,28.83
2022-10-11T13:47:50.455Z,25.17
2022-10-11T13:50:24.369Z,23.98
2022-10-11T13:53:22.332Z,22.80
2022-10-11T13:56:02.135Z,22.70
2022-10-11T13:58:36.825Z,21.75
2022-10-11T14:01:06.570Z,18.48
2022-10-11T14:03:42.481Z,21.85
2022-10-11T14:06:10.911Z,20.25
2022-10-11T14:08:54.224Z,18.98
2022-10-11T14:11:39.758Z,20.52
2022-10-11T14:14:35.442Z,30.40
2022-10-11T14:17:20.143Z,22.23
2022-10-11T14:20:07.305Z,35.20
2022-10-11T14:22:38.060Z,30.98
2022-10-11T14:25:06.154Z,24.85
2022-10-11T14:27:33.903Z,25.67
2022-10-11T14:30:24.093Z,27.98
2022-10-11T14:32:51.509Z,28.55
2022-10-11T14:35:25.101Z,29.63
2022-10-11T14:37:53.422Z,34.60
2022-10-11T14:40:27.547Z,37.08
2022-10-11T14:42:57.339Z,35.53
2022-10-11T14:45:25.562Z,23.70
2022-10-11T14:47:53.222Z,26.42
2022-10-11T14:50:26.695Z,27.00
2022-10-11T14:52:55.754Z,22.13
2022-10-11T14:55:26.344Z,23.63
2022-10-11T14:57:53.974Z,24.25
2022-10-11T15:00:24.992Z,32.88
2022-10-11T15:02:57.162Z,33.97
2022-10-11T15:05:33.743Z,32.78
2022-10-11T15:08:03.430Z,29.05
2022-10-11T15:10:35.905Z,19.98
2022-10-11T15:13:06.822Z,24.27
2022-10-11T15:15:37.089Z,26.40
2022-10-11T15:18:07.073Z,26.33
2022-10-11T15:20:37.919Z,27.05
2022-10-11T15:23:08.066Z,25.35
2022-10-11T15:25:36.906Z,28.45
2022-10-11T15:28:05.735Z,27.17
2022-10-11T15:30:41.085Z,27.17
2022-10-11T15:33:09.553Z,30.45
2022-10-11T15:35:37.010Z,31.38
2022-10-11T15:38:04.394Z,30.20
2022-10-11T15:40:37.102Z,30.95
2022-10-11T15:43:04.813Z,35.28
2022-10-11T15:45:32.825Z,38.45
2022-10-11T15:48:00.360Z,38.67
2022-10-11T15:50:39.836Z,36.67
2022-10-11T15:53:18.888Z,34.90
2022-10-11T15:55:54.554Z,34.08
2022-10-11T15:58:29.130Z,33.55
2022-10-11T16:00:58.905Z,32.85
2022-10-11T16:03:29.623Z,35.85
2022-10-11T16:06:03.845Z,33.65
2022-10-11T16:08:33.743Z,34.08
2022-10-11T16:11:02.913Z,34.00
2022-10-11T16:13:30.905Z,34.20
2022-10-11T16:15:58.227Z,34.92
2022-10-11T16:18:34.184Z,35.15
2022-10-11T16:21:10.638Z,36.20
2022-10-11T16:23:38.856Z,47.67
2022-10-11T16:26:09.260Z,49.40
2022-10-11T16:28:38.221Z,45.55
2022-10-11T16:31:10.884Z,45.92
2022-10-11T16:33:46.143Z,46.92
2022-10-11T16:36:36.068Z,53.63
2022-10-11T16:39:11.154Z,53.85
2022-10-11T16:41:38.553Z,53.78
2022-10-11T16:44:07.066Z,51.78
2022-10-11T16:46:34.808Z,53.55
2022-10-11T16:49:04.634Z,58.53
2022-10-11T16:51:32.660Z,57.90
2022-10-11T16:54:00.111Z,47.97
2022-10-11T16:56:28.375Z,53.83
2022-10-11T16:58:58.273Z,57.92
2022-10-11T17:01:26.337Z,89.35
2022-10-11T17:03:54.373Z,98.75
2022-10-11T17:06:22.162Z,79.55
2022-10-11T17:08:49.477Z,110.57
2022-10-11T17:11:17.927Z,80.18
2022-10-11T17:13:48.571Z,127.68
2022-10-11T17:16:17.914Z,51.08
2022-10-11T17:18:45.211Z,123.43
2022-10-11T17:21:15.655Z,57.05
2022-10-11T17:23:45.551Z,66.53
2022-10-11T17:26:19.850Z,50.28
2022-10-11T17:28:47.654Z,40.00
2022-10-11T17:31:15.225Z,38.05
2022-10-11T17:33:45.542Z,38.03
2022-10-11T17:36:25.373Z,34.80
2022-10-11T17:38:53.107Z,41.78
2022-10-11T17:41:21.123Z,39.63
2022-10-11T17:43:48.693Z,35.30
2022-10-11T17:46:17.500Z,60.70
2022-10-11T17:48:45.672Z,66.45
2022-10-11T17:51:17.265Z,80.45
2022-10-11T17:53:47.564Z,57.50
2022-10-11T17:56:17.416Z,106.20
2022-10-11T17:58:45.566Z,42.83
2022-10-11T18:01:16.364Z,66.63
2022-10-11T18:03:44.982Z,47.10
2022-10-11T18:06:13.743Z,55.10
2022-10-11T18:08:41.641Z,75.43
2022-10-11T18:11:12.082Z,98.10
2022-10-11T18:13:46.099Z,67.97
2022-10-11T18:16:17.321Z,76.90
2022-10-11T18:18:44.873Z,64.35
2022-10-11T18:21:12.484Z,89.22
2022-10-11T18:23:40.615Z,66.55
2022-10-11T18:26:20.385Z,77.20
2022-10-11T18:28:49.225Z,74.72
2022-10-11T18:31:20.284Z,61.03
2022-10-11T18:33:51.135Z,61.88
2022-10-11T18:36:21.515Z,56.28
2022-10-11T18:38:53.933Z,61.65
2022-10-11T18:41:23.094Z,49.70
2022-10-11T18:43:53.793Z,42.30
2022-10-11T18:46:24.875Z,39.72
2022-10-11T18:48:54.842Z,65.20
2022-10-11T18:51:25.295Z,70.20
2022-10-11T18:53:53.901Z,77.72
2022-10-11T18:56:25.325Z,42.00
2022-10-11T18:58:54.256Z,36.28
2022-10-11T19:01:24.570Z,46.95
2022-10-11T19:03:56.685Z,39.78
2022-10-11T19:06:31.042Z,41.05
2022-10-11T19:09:11.043Z,44.65
2022-10-11T19:11:39.902Z,74.35
2022-10-11T19:14:12.452Z,85.05
2022-10-11T19:16:47.893Z,183.77
2022-10-11T19:19:16.654Z,149.17
2022-10-11T19:21:45.168Z,95.97
2022-10-11T19:24:12.964Z,80.47
2022-10-11T19:26:41.954Z,134.65
2022-10-11T19:29:20.753Z,85.00
2022-10-11T19:32:00.097Z,66.00
2022-10-11T19:34:28.660Z,54.75
2022-10-11T19:36:57.344Z,64.25
2022-10-11T19:39:25.691Z,100.93
2022-10-11T19:41:53.145Z,62.50
2022-10-11T19:44:21.136Z,66.55
2022-10-11T19:46:52.898Z,86.28
2022-10-11T19:49:25.400Z,93.50
2022-10-11T19:51:55.488Z,122.68
2022-10-11T19:54:23.282Z,111.47
2022-10-11T19:56:51.133Z,111.57
2022-10-11T19:59:21.704Z,96.07
2022-10-11T20:01:52.959Z,160.40
2022-10-11T20:07:10.154Z,62.92
2022-10-11T20:09:37.602Z,61.33
2022-10-11T20:12:05.866Z,62.58
2022-10-11T20:14:33.301Z,118.63
2022-10-11T20:17:00.861Z,83.50
2022-10-11T20:19:31.074Z,65.97
2022-10-11T20:22:01.187Z,127.60
2022-10-11T20:24:33.704Z,123.50
2022-10-11T20:27:06.113Z,124.47
2022-10-11T20:29:34.355Z,134.60
2022-10-11T20:32:02.202Z,113.70
2022-10-11T20:34:30.555Z,109.05
2022-10-11T20:37:01.833Z,83.68
2022-10-11T20:39:29.116Z,83.38
2022-10-11T20:41:59.793Z,73.07
2022-10-11T20:44:27.153Z,70.30
2022-10-11T20:46:55.094Z,75.00
2022-10-11T20:49:22.791Z,76.68
2022-10-11T20:51:52.885Z,88.15
2022-10-11T20:54:20.683Z,90.03
2022-10-11T20:56:48.105Z,84.18
2022-10-11T20:59:15.583Z,79.93
2022-10-11T21:01:43.165Z,78.95
2022-10-11T21:04:17.693Z,84.43
2022-10-11T21:06:46.222Z,82.95
2022-10-11T21:09:16.350Z,73.88
2022-10-11T21:11:45.305Z,67.88
2022-10-11T21:14:13.044Z,58.05
2022-10-11T21:16:40.584Z,48.05
2022-10-11T21:19:07.832Z,48.92
2022-10-11T21:21:35.107Z,44.63
2022-10-11T21:24:03.068Z,46.72
2022-10-11T21:26:31.159Z,46.33
2022-10-11T21:29:04.229Z,130.25
2022-10-11T21:31:34.255Z,98.32
2022-10-11T21:34:03.495Z,69.38
2022-10-11T21:36:30.984Z,69.43
2022-10-11T21:38:58.203Z,69.07
2022-10-11T21:41:26.962Z,69.18
2022-10-11T21:43:54.449Z,55.70
2022-10-11T21:46:22.640Z,50.28
2022-10-11T21:48:50.410Z,44.58
2022-10-11T21:51:27.314Z,42.20
2022-10-11T21:53:56.297Z,42.70
2022-10-11T21:56:23.994Z,42.92
2022-10-11T21:58:51.698Z,43.00
2022-10-11T22:01:19.902Z,41.88
2022-10-11T22:03:47.884Z,41.92
2022-10-11T22:06:15.827Z,44.65
2022-10-11T22:08:43.132Z,43.83
2022-10-11T22:11:11.358Z,40.20
2022-10-11T22:13:38.968Z,42.03
2022-10-11T22:16:09.122Z,40.55
2022-10-11T22:18:36.964Z,41.47
2022-10-11T22:21:09.859Z,41.58
2022-10-11T22:23:37.399Z,50.10
2022-10-11T22:26:11.494Z,48.03
2022-10-11T22:28:39.600Z,47.13
2022-10-11T22:31:08.212Z,47.92
2022-10-11T22:33:35.827Z,49.83
2022-10-11T22:36:06.202Z,44.00
2022-10-11T22:38:36.328Z,42.70
2022-10-11T22:41:03.802Z,41.92
2022-10-11T22:43:31.355Z,42.95
2022-10-11T22:45:58.758Z,41.67
2022-10-11T22:48:26.304Z,44.85
2022-10-11T22:50:54.593Z,43.30
2022-10-11T22:53:22.222Z,42.42
2022-10-11T22:55:49.455Z,35.95
2022-10-11T22:58:16.849Z,34.17
2022-10-11T23:00:44.187Z,33.97
2022-10-11T23:03:18.031Z,35.00
2022-10-11T23:05:57.144Z,34.58
2022-10-11T23:08:25.013Z,31.95
2022-10-11T23:10:52.704Z,34.03
2022-10-11T23:13:20.164Z,32.95
2022-10-11T23:15:47.438Z,31.00
2022-10-11T23:18:16.592Z,31.15
2022-10-11T23:20:43.934Z,31.83
2022-10-11T23:23:11.270Z,31.85
2022-10-11T23:25:39.087Z,33.45
2022-10-11T23:28:06.243Z,34.30
2022-10-11T23:30:33.514Z,35.40
2022-10-11T23:33:00.980Z,35.42
2022-10-11T23:35:28.714Z,39.03
2022-10-11T23:37:55.922Z,38.72
2022-10-11T23:40:23.522Z,41.28
2022-10-11T23:42:50.778Z,41.88
2022-10-11T23:45:18.010Z,42.22
2022-10-11T23:47:45.457Z,39.53
2022-10-11T23:50:12.610Z,43.83
2022-10-11T23:52:39.880Z,37.67
2022-10-11T23:55:07.566Z,39.40
2022-10-11T23:57:37.426Z,39.92
